WXM80 ListenWXM80 Stop

You find our weather info also at:

UK Metoffice

WeatherCloud

Weather Underground

Northeastern Weather Network

AWEKAS

Citizen Weather Observer Program (CWOP)

HAMweather, WeatherForYou, PWS Weather


Weather Underground History page Text

Daily Summary for September 26, 2017 Units:  Metric    English   Both
« Previous Day
Next Day »
Daily Weekly Monthly Yearly Custom
  High: Low: Average:
Temperature: 26.4 °C 18.7 °C 22 °C
Dew Point: 22.5 °C 17.2 °C 20.2 °C
Humidity: 97 % 76 % 90 %
Wind Speed: 7.2 km/h 0 km/h 0.8 km/h
Wind Gust: 11.3 km/h - -
Wind:- - ENE
Pressure: 1014.1 hPa 1010.7 hPa -
Precipitation: 0 mm    
Historical Graphs
 
 
Tabular Data for September 26, 2017
Time Temperature Dew Point Pressure Wind Wind Speed Wind Gust Humidity Rainfall Rate (Hourly)
00:03 19.1 °C 17.4 °C 1013.1 hPa Calm     90 % 0 mm
00:08 19.1 °C 17.4 °C 1013.4 hPa Calm     90 % 0 mm
00:13 19 °C 17.5 °C 1013.4 hPa Calm     91 % 0 mm
00:18 18.9 °C 17.3 °C 1013.1 hPa Calm     90 % 0 mm
00:23 18.9 °C 17.3 °C 1013.1 hPa Calm     90 % 0 mm
00:28 18.8 °C 17.3 °C 1013.1 hPa Calm     91 % 0 mm
00:38 18.8 °C 17.3 °C 1013.1 hPa Calm     91 % 0 mm
00:43 18.8 °C 17.3 °C 1013.1 hPa Calm     91 % 0 mm
00:48 18.7 °C 17.2 °C 1013.1 hPa Calm     91 % 0 mm
00:53 18.7 °C 17.4 °C 1013.1 hPa Calm     92 % 0 mm
00:58 18.7 °C 17.4 °C 1013.1 hPa SE 0.3 km/h 1.9 km/h 92 % 0 mm
01:03 18.7 °C 17.3 °C 1013.4 hPa Calm     92 % 0 mm
01:08 18.7 °C 17.3 °C 1013.4 hPa Calm     92 % 0 mm
01:18 18.7 °C 17.6 °C 1013.4 hPa Calm     93 % 0 mm
01:23 18.7 °C 17.6 °C 1013.4 hPa Calm     93 % 0 mm
01:28 18.8 °C 17.6 °C 1013.8 hPa SE 0.2 km/h 1.9 km/h 93 % 0 mm
01:33 18.8 °C 17.8 °C 1013.8 hPa Calm     94 % 0 mm
01:38 18.9 °C 17.9 °C 1013.8 hPa Calm     94 % 0 mm
01:43 19.1 °C 18.2 °C 1013.8 hPa Calm     95 % 0 mm
01:48 19.2 °C 18.4 °C 1014.1 hPa Calm     95 % 0 mm
01:53 19.3 °C 18.5 °C 1013.8 hPa SE 0.2 km/h 1.9 km/h 95 % 0 mm
01:59 19.4 °C 18.6 °C 1013.8 hPa SE 2.1 km/h 3.7 km/h 95 % 0 mm
02:04 19.6 °C 18.9 °C 1014.1 hPa SE 0.3 km/h 3.7 km/h 96 % 0 mm
02:09 19.6 °C 18.8 °C 1014.1 hPa SE 1.8 km/h 5.6 km/h 95 % 0 mm
02:13 19.6 °C 18.8 °C 1014.1 hPa SE 0.6 km/h 3.2 km/h 95 % 0 mm
02:18 19.7 °C 18.8 °C 1014.1 hPa SE 1.8 km/h 5.6 km/h 95 % 0 mm
02:23 19.6 °C 18.8 °C 1014.1 hPa Calm   3.7 km/h 95 % 0 mm
02:28 19.6 °C 18.8 °C 1013.8 hPa SE 1.8 km/h 3.7 km/h 95 % 0 mm
02:33 19.6 °C 18.8 °C 1013.8 hPa SE 2.4 km/h 5.6 km/h 95 % 0 mm
02:38 19.7 °C 19 °C 1013.8 hPa Calm   5.6 km/h 96 % 0 mm
02:43 19.7 °C 19 °C 1013.8 hPa Calm     96 % 0 mm
02:49 19.7 °C 19 °C 1013.8 hPa Calm     96 % 0 mm
02:50 19.7 °C 19 °C 1013.8 hPa Calm     96 % 0 mm
02:55 19.7 °C 19 °C 1013.4 hPa Calm     96 % 0 mm
03:00 19.7 °C 19 °C 1013.8 hPa Calm     96 % 0 mm
03:05 19.7 °C 19 °C 1013.8 hPa Calm     96 % 0 mm
03:10 19.7 °C 19 °C 1013.4 hPa Calm     96 % 0 mm
03:15 19.7 °C 19 °C 1013.4 hPa Calm     96 % 0 mm
03:20 19.7 °C 19 °C 1013.4 hPa Calm     96 % 0 mm
03:25 19.7 °C 19 °C 1013.4 hPa Calm     96 % 0 mm
03:30 19.7 °C 19.1 °C 1013.4 hPa Calm     96 % 0 mm
03:35 19.7 °C 19.1 °C 1013.4 hPa Calm     96 % 0 mm
03:40 19.7 °C 19.1 °C 1013.4 hPa Calm     96 % 0 mm
03:46 19.7 °C 19.1 °C 1013.4 hPa Calm     96 % 0 mm
03:51 19.8 °C 19.1 °C 1013.4 hPa Calm     96 % 0 mm
03:56 19.7 °C 19.1 °C 1013.4 hPa Calm     96 % 0 mm
04:01 19.7 °C 19.1 °C 1013.4 hPa Calm     96 % 0 mm
04:06 19.7 °C 19.1 °C 1013.1 hPa Calm     96 % 0 mm
04:11 19.8 °C 19.1 °C 1013.4 hPa Calm     96 % 0 mm
04:16 19.8 °C 19.1 °C 1013.1 hPa Calm     96 % 0 mm
04:21 19.8 °C 19.1 °C 1013.1 hPa Calm     96 % 0 mm
04:26 19.8 °C 19.1 °C 1013.1 hPa Calm     96 % 0 mm
04:31 19.8 °C 19.1 °C 1013.1 hPa Calm     96 % 0 mm
04:36 19.7 °C 19.1 °C 1013.1 hPa Calm     96 % 0 mm
04:41 19.7 °C 19.1 °C 1013.4 hPa Calm     96 % 0 mm
04:46 19.7 °C 19.1 °C 1013.1 hPa Calm     96 % 0 mm
04:51 19.7 °C 19 °C 1013.1 hPa NNE 2.4 km/h 5.6 km/h 96 % 0 mm
04:56 19.7 °C 19 °C 1013.1 hPa Calm   1.9 km/h 96 % 0 mm
05:01 19.7 °C 19.1 °C 1012.8 hPa North 2.7 km/h 8 km/h 96 % 0 mm
05:07 19.7 °C 19 °C 1012.8 hPa North 0.2 km/h 1.9 km/h 96 % 0 mm
05:12 19.7 °C 19 °C 1012.8 hPa Calm     96 % 0 mm
05:17 19.7 °C 19 °C 1012.8 hPa NE 0.6 km/h 1.9 km/h 96 % 0 mm
05:22 19.7 °C 19.1 °C 1012.8 hPa NNE 2.3 km/h 6.4 km/h 96 % 0 mm
05:27 19.7 °C 19.1 °C 1013.1 hPa NNE 0.2 km/h 1.9 km/h 96 % 0 mm
05:32 19.7 °C 19.1 °C 1013.1 hPa Calm     96 % 0 mm
05:47 19.7 °C 19.1 °C 1013.1 hPa Calm     96 % 0 mm
05:52 19.7 °C 19.1 °C 1013.4 hPa Calm     96 % 0 mm
05:57 19.7 °C 19.1 °C 1013.4 hPa Calm     96 % 0 mm
06:02 19.7 °C 19.1 °C 1013.4 hPa Calm     96 % 0 mm
06:05 19.7 °C 19.1 °C 1013.4 hPa Calm     96 % 0 mm
06:10 19.7 °C 19.1 °C 1013.4 hPa Calm     96 % 0 mm
06:15 19.7 °C 19.1 °C 1013.4 hPa NNE 0.3 km/h 3.7 km/h 96 % 0 mm
06:21 19.8 °C 19.1 °C 1013.4 hPa Calm     96 % 0 mm
06:25 19.8 °C 19.1 °C 1013.4 hPa NNE 1 km/h 3.7 km/h 96 % 0 mm
06:26 19.8 °C 19.1 °C 1013.4 hPa NNE 0.5 km/h 3.7 km/h 96 % 0 mm
06:31 19.8 °C 19.1 °C 1013.4 hPa NNE 1 km/h 3.7 km/h 96 % 0 mm
06:36 19.8 °C 19.1 °C 1013.4 hPa Calm     96 % 0 mm
06:41 19.8 °C 19.3 °C 1013.4 hPa Calm     97 % 0 mm
06:46 19.8 °C 19.2 °C 1013.4 hPa NNE 0.2 km/h 1.9 km/h 96 % 0 mm
06:51 19.8 °C 19.3 °C 1013.8 hPa NNE 0.2 km/h   97 % 0 mm
06:56 19.8 °C 19.3 °C 1013.8 hPa Calm     97 % 0 mm
07:01 19.8 °C 19.3 °C 1013.4 hPa NNE 0.5 km/h 1.9 km/h 97 % 0 mm
07:06 19.9 °C 19.4 °C 1013.4 hPa NNE 0.3 km/h   97 % 0 mm
07:11 19.9 °C 19.4 °C 1013.8 hPa Calm     97 % 0 mm
07:16 19.9 °C 19.4 °C 1013.8 hPa Calm   1.9 km/h 97 % 0 mm
07:21 19.9 °C 19.4 °C 1013.8 hPa NE 1.3 km/h 1.6 km/h 97 % 0 mm
07:26 19.9 °C 19.4 °C 1013.8 hPa NE 0.3 km/h 1.9 km/h 97 % 0 mm
07:32 20 °C 19.5 °C 1013.8 hPa NE 0.2 km/h 1.6 km/h 97 % 0 mm
07:37 20 °C 19.5 °C 1013.8 hPa NE 0.8 km/h 3.7 km/h 97 % 0 mm
07:42 20 °C 19.5 °C 1013.8 hPa NE 1.3 km/h 3.7 km/h 97 % 0 mm
07:47 20.1 °C 19.6 °C 1013.8 hPa NE 0.3 km/h 1.9 km/h 97 % 0 mm
07:52 20.1 °C 19.6 °C 1013.8 hPa Calm     97 % 0 mm
07:57 20.2 °C 19.7 °C 1013.8 hPa Calm   3.7 km/h 97 % 0 mm
08:02 20.2 °C 19.7 °C 1013.8 hPa NE 3.7 km/h 6.4 km/h 97 % 0 mm
08:07 20.3 °C 19.8 °C 1013.8 hPa Calm   1.9 km/h 97 % 0 mm
08:12 20.3 °C 19.8 °C 1013.8 hPa Calm   3.2 km/h 97 % 0 mm
08:17 20.4 °C 19.9 °C 1014.1 hPa Calm     97 % 0 mm
08:22 20.4 °C 19.9 °C 1014.1 hPa Calm     97 % 0 mm
08:27 20.5 °C 20 °C 1014.1 hPa Calm     97 % 0 mm
08:33 20.6 °C 20.1 °C 1014.1 hPa Calm   1.6 km/h 97 % 0 mm
08:38 20.6 °C 20.1 °C 1014.1 hPa Calm     97 % 0 mm
08:43 20.7 °C 20.2 °C 1014.1 hPa Calm   1.9 km/h 97 % 0 mm
08:48 20.8 °C 20.3 °C 1014.1 hPa NE 0.2 km/h 3.7 km/h 97 % 0 mm
08:53 20.8 °C 20.3 °C 1014.1 hPa Calm     97 % 0 mm
08:58 20.8 °C 20.3 °C 1014.1 hPa Calm     97 % 0 mm
09:03 20.9 °C 20.4 °C 1014.1 hPa NE 0.5 km/h 3.7 km/h 97 % 0 mm
09:08 20.9 °C 20.4 °C 1014.1 hPa Calm   1.9 km/h 97 % 0 mm
09:13 20.9 °C 20.4 °C 1014.1 hPa NE 0.3 km/h 1.9 km/h 97 % 0 mm
09:18 20.9 °C 20.3 °C 1014.1 hPa Calm   1.9 km/h 96 % 0 mm
09:23 21.1 °C 20.4 °C 1014.1 hPa NE 2.1 km/h 6.4 km/h 96 % 0 mm
09:28 21.1 °C 20.4 °C 1014.1 hPa Calm     96 % 0 mm
09:33 21.2 °C 20.5 °C 1014.1 hPa NE 0.2 km/h 1.6 km/h 96 % 0 mm
09:38 21.3 °C 20.7 °C 1014.1 hPa NE 0.2 km/h 1.9 km/h 96 % 0 mm
09:43 21.3 °C 20.5 °C 1014.1 hPa NE 0.2 km/h 1.9 km/h 95 % 0 mm
09:48 21.4 °C 20.6 °C 1014.1 hPa Calm   1.9 km/h 95 % 0 mm
09:53 21.6 °C 20.7 °C 1014.1 hPa ENE 0.2 km/h 1.6 km/h 95 % 0 mm
09:58 21.7 °C 20.7 °C 1014.1 hPa Calm   1.9 km/h 94 % 0 mm
10:03 21.8 °C 20.6 °C 1014.1 hPa Calm   1.9 km/h 93 % 0 mm
10:08 21.9 °C 20.7 °C 1014.1 hPa NE 0.6 km/h 1.9 km/h 93 % 0 mm
10:13 22 °C 20.8 °C 1014.1 hPa NE 0.2 km/h 1.9 km/h 93 % 0 mm
10:18 22.1 °C 20.7 °C 1014.1 hPa NE 3.1 km/h 5.6 km/h 92 % 0 mm
10:23 22.2 °C 20.7 °C 1014.1 hPa ENE 1.4 km/h 3.7 km/h 91 % 0 mm
10:28 22.3 °C 20.7 °C 1014.1 hPa ENE 2.4 km/h 7.4 km/h 91 % 0 mm
10:33 22.3 °C 20.8 °C 1014.1 hPa NE 1.6 km/h 5.6 km/h 91 % 0 mm
10:38 22.4 °C 20.8 °C 1014.1 hPa NE 0.8 km/h 5.6 km/h 91 % 0 mm
10:43 22.5 °C 20.8 °C 1013.8 hPa NE 3.4 km/h 8 km/h 90 % 0 mm
10:48 22.6 °C 20.9 °C 1014.1 hPa ENE 0.5 km/h 3.7 km/h 90 % 0 mm
10:53 22.7 °C 21 °C 1014.1 hPa NNE 2.4 km/h 5.6 km/h 90 % 0 mm
10:58 22.9 °C 21 °C 1013.8 hPa NNE 3.7 km/h 6.4 km/h 89 % 0 mm
11:03 23 °C 20.9 °C 1013.8 hPa ENE 1.1 km/h 4.8 km/h 88 % 0 mm
11:08 23.2 °C 21.1 °C 1014.1 hPa Calm   3.7 km/h 88 % 0 mm
11:13 23.3 °C 21.2 °C 1013.8 hPa Calm     88 % 0 mm
11:18 23.5 °C 21.4 °C 1013.8 hPa NNE 2.7 km/h 5.6 km/h 88 % 0 mm
11:23 23.8 °C 21.5 °C 1013.8 hPa NNW 2.4 km/h 6.4 km/h 87 % 0 mm
11:28 24.1 °C 21.6 °C 1013.8 hPa ENE 1.9 km/h 5.6 km/h 86 % 0 mm
11:33 24.4 °C 21.8 °C 1013.8 hPa NE 2.3 km/h 3.7 km/h 85 % 0 mm
11:39 24.7 °C 21.6 °C 1013.8 hPa NNE 5.3 km/h 6.4 km/h 83 % 0 mm
11:44 24.9 °C 21.8 °C 1013.8 hPa NNE 2.1 km/h 5.6 km/h 83 % 0 mm
11:49 25.2 °C 21.9 °C 1013.8 hPa ENE 3.9 km/h 6.4 km/h 82 % 0 mm
11:54 25.5 °C 22.2 °C 1013.4 hPa North 3.1 km/h 7.4 km/h 82 % 0 mm
11:59 25.7 °C 22 °C 1013.4 hPa NNE 3.1 km/h 8 km/h 80 % 0 mm
12:04 25.8 °C 21.7 °C 1013.4 hPa ENE 2.4 km/h 5.6 km/h 78 % 0 mm
12:09 25.9 °C 22 °C 1013.4 hPa North 2.9 km/h 9.7 km/h 79 % 0 mm
12:19 26.3 °C 22.3 °C 1013.4 hPa NNE 7.2 km/h 11.3 km/h 79 % 0 mm
12:24 26.3 °C 22.2 °C 1013.1 hPa NNE 3.5 km/h 5.6 km/h 78 % 0 mm
12:29 26.3 °C 21.9 °C 1013.4 hPa North 4.3 km/h 7.4 km/h 77 % 0 mm
12:34 26.2 °C 21.6 °C 1013.4 hPa NNE 4 km/h 7.4 km/h 76 % 0 mm
12:39 26.1 °C 22 °C 1013.4 hPa North 2.1 km/h 6.4 km/h 78 % 0 mm
12:44 26.2 °C 22 °C 1013.4 hPa North 3.7 km/h 7.4 km/h 78 % 0 mm
12:49 26.2 °C 21.6 °C 1013.1 hPa ENE 4.2 km/h 6.4 km/h 76 % 0 mm
12:54 26.1 °C 22.2 °C 1013.1 hPa ENE 2.4 km/h 5.6 km/h 79 % 0 mm
12:59 26.2 °C 21.8 °C 1013.1 hPa North 4.3 km/h 7.4 km/h 77 % 0 mm
13:04 26.1 °C 22 °C 1013.1 hPa North 2.9 km/h 9.3 km/h 78 % 0 mm
13:10 26.1 °C 21.9 °C 1013.1 hPa NE 3.5 km/h 5.6 km/h 78 % 0 mm
13:13 26.1 °C 21.9 °C 1013.1 hPa ENE 3.1 km/h 9.3 km/h 78 % 0 mm
13:18 26.1 °C 22 °C 1012.8 hPa NE 1.9 km/h 5.6 km/h 78 % 0 mm
13:23 26.1 °C 22 °C 1012.8 hPa NNE 5.1 km/h 5.6 km/h 78 % 0 mm
13:28 26 °C 21.7 °C 1012.8 hPa NE 2.1 km/h 5.6 km/h 77 % 0 mm
13:33 26.1 °C 22.1 °C 1012.4 hPa ENE 3.1 km/h 5.6 km/h 79 % 0 mm
13:38 26.1 °C 22.1 °C 1012.8 hPa ENE 4.7 km/h 9.3 km/h 79 % 0 mm
13:43 26.2 °C 22.2 °C 1012.8 hPa NNE 2.3 km/h 5.6 km/h 79 % 0 mm
13:46 26.2 °C 22.3 °C 1012.4 hPa NE 3.2 km/h 6.4 km/h 79 % 0 mm
13:51 26.3 °C 21.9 °C 1012.8 hPa NE 3.2 km/h 8 km/h 77 % 0 mm
13:55 26.2 °C 22.2 °C 1012.4 hPa North 3.7 km/h 6.4 km/h 79 % 0 mm
13:57 26.2 °C 22.2 °C 1012.4 hPa NNE 4.3 km/h 7.4 km/h 79 % 0 mm
14:02 26.3 °C 22.4 °C 1012.8 hPa ENE 1.1 km/h 5.6 km/h 79 % 0 mm
14:07 26.4 °C 22.5 °C 1012.8 hPa ENE 1 km/h 3.7 km/h 79 % 0 mm
14:12 26.4 °C 22.3 °C 1012.4 hPa NE 0.6 km/h 3.2 km/h 78 % 0 mm
14:17 26.3 °C 22.1 °C 1012.4 hPa North 1.8 km/h 6.4 km/h 78 % 0 mm
14:22 26.2 °C 22 °C 1012.4 hPa NE 4.2 km/h 5.6 km/h 78 % 0 mm
14:27 26.1 °C 22 °C 1012.4 hPa North 3.2 km/h 5.6 km/h 78 % 0 mm
14:32 26.1 °C 22 °C 1012.1 hPa North 2.7 km/h 5.6 km/h 78 % 0 mm
14:37 26.1 °C 21.9 °C 1012.1 hPa NNE 3.4 km/h 5.6 km/h 78 % 0 mm
14:42 25.9 °C 22 °C 1012.1 hPa NNE 1.9 km/h 5.6 km/h 79 % 0 mm
14:47 25.9 °C 21.9 °C 1012.1 hPa ENE 2.6 km/h 5.6 km/h 79 % 0 mm
14:52 25.8 °C 21.9 °C 1012.1 hPa ENE 1.4 km/h 5.6 km/h 79 % 0 mm
14:57 25.8 °C 21.8 °C 1012.1 hPa ENE 3.5 km/h 5.6 km/h 79 % 0 mm
15:02 25.7 °C 22 °C 1011.7 hPa NE 2.3 km/h 5.6 km/h 80 % 0 mm
15:08 25.7 °C 21.9 °C 1011.7 hPa NE 0.5 km/h 1.9 km/h 80 % 0 mm
15:13 25.7 °C 22 °C 1011.7 hPa NE 0.3 km/h 1.9 km/h 80 % 0 mm
15:16 25.7 °C 21.8 °C 1011.7 hPa NE 1.3 km/h 5.6 km/h 79 % 0 mm
15:21 25.6 °C 21.7 °C 1011.7 hPa ENE 2.4 km/h 5.6 km/h 79 % 0 mm
15:27 25.5 °C 21.8 °C 1011.7 hPa Calm   3.7 km/h 80 % 0 mm
15:32 25.3 °C 21.6 °C 1011.7 hPa NNE 1 km/h 5.6 km/h 80 % 0 mm
15:37 25.2 °C 21.9 °C 1012.1 hPa Calm     82 % 0 mm
15:42 25.2 °C 21.7 °C 1011.7 hPa NNE 0.3 km/h 1.9 km/h 81 % 0 mm
15:47 25.1 °C 21.8 °C 1011.7 hPa NNE 0.8 km/h 1.9 km/h 82 % 0 mm
15:52 25.1 °C 21.6 °C 1011.7 hPa NE 0.8 km/h 1.9 km/h 81 % 0 mm
15:57 25.1 °C 21.6 °C 1011.7 hPa ENE 2.1 km/h 5.6 km/h 81 % 0 mm
16:02 25.1 °C 21.8 °C 1011.4 hPa ENE 1 km/h 3.7 km/h 82 % 0 mm
16:07 25 °C 21.7 °C 1011.4 hPa ENE 3.4 km/h 5.6 km/h 82 % 0 mm
16:12 24.9 °C 21.7 °C 1011.4 hPa ENE 2.6 km/h 4.8 km/h 82 % 0 mm
16:17 24.9 °C 21.6 °C 1011.4 hPa ENE 2.1 km/h 5.6 km/h 82 % 0 mm
16:22 24.8 °C 21.7 °C 1011.4 hPa ENE 0.2 km/h 1.9 km/h 83 % 0 mm
16:27 24.7 °C 21.6 °C 1011.4 hPa Calm   1.9 km/h 83 % 0 mm
16:32 24.7 °C 21.8 °C 1011.4 hPa NE 0.2 km/h 5.6 km/h 84 % 0 mm
16:37 24.6 °C 21.7 °C 1011.4 hPa Calm   5.6 km/h 84 % 0 mm
16:42 24.5 °C 21.8 °C 1011.4 hPa Calm   1.9 km/h 85 % 0 mm
16:47 24.4 °C 21.8 °C 1011.4 hPa NE 2.7 km/h 5.6 km/h 85 % 0 mm
16:52 24.4 °C 21.8 °C 1011.4 hPa NE 0.8 km/h 3.2 km/h 85 % 0 mm
16:57 24.4 °C 21.7 °C 1011.4 hPa Calm   1.9 km/h 85 % 0 mm
17:02 24.3 °C 21.7 °C 1011.1 hPa NE 0.2 km/h 1.6 km/h 85 % 0 mm
17:07 24.3 °C 21.6 °C 1011.1 hPa Calm   1.9 km/h 85 % 0 mm
17:12 24.3 °C 21.4 °C 1011.4 hPa NE 0.2 km/h 1.9 km/h 84 % 0 mm
17:17 24.3 °C 21.6 °C 1011.1 hPa Calm   1.9 km/h 85 % 0 mm
17:23 24.3 °C 21.4 °C 1011.1 hPa Calm     84 % 0 mm
17:28 24.3 °C 21.2 °C 1011.1 hPa Calm   1.9 km/h 83 % 0 mm
17:33 24.3 °C 21.2 °C 1011.1 hPa NE 2.9 km/h 3.7 km/h 83 % 0 mm
17:38 24.2 °C 21.2 °C 1011.1 hPa ENE 1.8 km/h 5.6 km/h 83 % 0 mm
17:43 24.2 °C 21.1 °C 1011.1 hPa Calm     83 % 0 mm
17:48 24.2 °C 21.3 °C 1011.1 hPa ENE 0.2 km/h 1.9 km/h 84 % 0 mm
17:53 24.1 °C 21.4 °C 1011.1 hPa ENE 0.2 km/h 1.9 km/h 85 % 0 mm
17:58 24.1 °C 21.4 °C 1011.1 hPa ENE 0.5 km/h 1.9 km/h 85 % 0 mm
18:03 24.1 °C 21.4 °C 1011.1 hPa ENE 0.2 km/h 1.9 km/h 85 % 0 mm
18:08 24 °C 21.3 °C 1011.1 hPa Calm     85 % 0 mm
18:13 23.9 °C 21.4 °C 1011.1 hPa Calm     86 % 0 mm
18:18 23.9 °C 21.4 °C 1011.1 hPa Calm   1.9 km/h 86 % 0 mm
18:23 23.8 °C 21.3 °C 1011.1 hPa Calm   1.9 km/h 86 % 0 mm
18:29 23.8 °C 21.5 °C 1011.1 hPa ENE 0.5 km/h   87 % 0 mm
18:34 23.7 °C 21.4 °C 1011.1 hPa Calm     87 % 0 mm
18:39 23.6 °C 21.5 °C 1011.1 hPa Calm     88 % 0 mm
18:44 23.5 °C 21.4 °C 1011.1 hPa Calm     88 % 0 mm
18:49 23.4 °C 21.3 °C 1011.1 hPa Calm     88 % 0 mm
18:54 23.3 °C 21.2 °C 1011.1 hPa Calm     88 % 0 mm
18:59 23.3 °C 21.2 °C 1011.1 hPa Calm     88 % 0 mm
19:04 23.2 °C 21.1 °C 1011.1 hPa Calm     88 % 0 mm
19:09 23.1 °C 21 °C 1011.1 hPa Calm     88 % 0 mm
19:14 23.1 °C 21.2 °C 1011.1 hPa Calm     89 % 0 mm
19:19 22.9 °C 21.1 °C 1011.1 hPa Calm     89 % 0 mm
19:24 22.9 °C 21 °C 1011.1 hPa Calm     89 % 0 mm
19:29 22.8 °C 20.9 °C 1011.1 hPa Calm     89 % 0 mm
19:34 22.7 °C 20.8 °C 1011.4 hPa Calm     89 % 0 mm
19:39 22.6 °C 20.7 °C 1011.4 hPa Calm     89 % 0 mm
19:44 22.5 °C 20.6 °C 1011.4 hPa Calm     89 % 0 mm
19:49 22.4 °C 20.5 °C 1011.4 hPa Calm   1.9 km/h 89 % 0 mm
19:54 22.3 °C 20.4 °C 1011.4 hPa SE 0.8 km/h 5.6 km/h 89 % 0 mm
19:59 22.2 °C 20.3 °C 1011.4 hPa Calm     89 % 0 mm
20:04 22.2 °C 20.3 °C 1011.4 hPa Calm     89 % 0 mm
20:09 22.1 °C 20.2 °C 1011.7 hPa Calm     89 % 0 mm
20:15 22.1 °C 20.2 °C 1011.4 hPa Calm     89 % 0 mm
20:20 21.9 °C 20.1 °C 1011.4 hPa SE 0.3 km/h 3.7 km/h 89 % 0 mm
20:25 21.9 °C 20 °C 1011.4 hPa SE 0.2 km/h 1.9 km/h 89 % 0 mm
20:30 21.8 °C 19.9 °C 1011.4 hPa Calm     89 % 0 mm
20:35 21.8 °C 19.9 °C 1011.4 hPa Calm     89 % 0 mm
20:40 21.7 °C 19.8 °C 1011.4 hPa Calm     89 % 0 mm
20:45 21.7 °C 19.8 °C 1011.4 hPa Calm     89 % 0 mm
20:50 21.6 °C 19.6 °C 1011.4 hPa Calm     88 % 0 mm
20:55 21.6 °C 19.5 °C 1011.4 hPa Calm     88 % 0 mm
21:00 21.5 °C 19.4 °C 1011.4 hPa Calm     88 % 0 mm
21:05 21.4 °C 19.3 °C 1011.4 hPa Calm     88 % 0 mm
21:10 21.3 °C 19.3 °C 1011.4 hPa Calm     88 % 0 mm
21:15 21.3 °C 19.2 °C 1011.4 hPa Calm     88 % 0 mm
21:20 21.2 °C 19.3 °C 1011.4 hPa SE 0.3 km/h 3.7 km/h 89 % 0 mm
21:25 21.1 °C 19.2 °C 1011.4 hPa Calm     89 % 0 mm
21:30 21 °C 19.1 °C 1011.4 hPa Calm     89 % 0 mm
21:35 20.9 °C 19.1 °C 1011.4 hPa Calm     89 % 0 mm
21:40 20.9 °C 19.2 °C 1011.4 hPa SE 1.8 km/h 5.6 km/h 90 % 0 mm
21:45 20.8 °C 19.1 °C 1011.4 hPa Calm   3.7 km/h 90 % 0 mm
21:51 20.8 °C 19.3 °C 1011.7 hPa SE 0.8 km/h 1.9 km/h 91 % 0 mm
21:55 20.8 °C 19.3 °C 1011.4 hPa SE 1.4 km/h 3.7 km/h 91 % 0 mm
22:01 20.8 °C 19.3 °C 1011.4 hPa SE 0.2 km/h 1.9 km/h 91 % 0 mm
22:06 20.8 °C 19.3 °C 1011.4 hPa Calm     91 % 0 mm
22:11 20.8 °C 19.3 °C 1011.4 hPa Calm   1.6 km/h 91 % 0 mm
22:16 20.8 °C 19.3 °C 1011.4 hPa Calm   3.2 km/h 91 % 0 mm
22:21 20.8 °C 19.3 °C 1011.7 hPa Calm     91 % 0 mm
22:26 20.8 °C 19.3 °C 1011.7 hPa Calm     91 % 0 mm
22:31 20.7 °C 19.2 °C 1011.7 hPa Calm     91 % 0 mm
22:36 20.7 °C 19.2 °C 1011.7 hPa Calm     91 % 0 mm
22:41 20.7 °C 19.2 °C 1011.7 hPa Calm     91 % 0 mm
22:46 20.6 °C 19.1 °C 1011.7 hPa Calm     91 % 0 mm
22:51 20.6 °C 19.1 °C 1011.7 hPa Calm     91 % 0 mm
22:56 20.5 °C 19 °C 1011.4 hPa Calm     91 % 0 mm
23:01 20.4 °C 18.9 °C 1011.4 hPa Calm     91 % 0 mm
23:06 20.4 °C 18.9 °C 1011.4 hPa Calm     91 % 0 mm
23:11 20.3 °C 18.8 °C 1011.4 hPa Calm     91 % 0 mm
23:16 20.3 °C 18.8 °C 1011.4 hPa Calm     91 % 0 mm
23:21 20.2 °C 18.7 °C 1011.4 hPa Calm     91 % 0 mm
23:26 20.2 °C 18.7 °C 1011.4 hPa Calm     91 % 0 mm
23:31 20.1 °C 18.6 °C 1011.1 hPa Calm     91 % 0 mm
23:37 20.1 °C 18.6 °C 1011.4 hPa Calm     91 % 0 mm
23:42 20 °C 18.5 °C 1011.1 hPa Calm     91 % 0 mm
23:47 19.9 °C 18.4 °C 1011.1 hPa Calm     91 % 0 mm
23:52 19.9 °C 18.4 °C 1011.1 hPa Calm     91 % 0 mm
23:57 19.8 °C 18.3 °C 1010.7 hPa Calm     91 % 0 mm
Crab Meadow Weather
Compliments of Weather Underground - 3 mb

Script developed by  Jim McMurry - jmcmurry@mwt.net Adapted for the template by  Wim van der Kuil - Leuven-Template.eu

Lightning: The chances of being hit by lightning is 1:28,500.